logo
Search for airport 
image banner adimage banner adimage banner ad
image banner ad

HKMO - Mombasa Moi Intl

Located in Mombasa, Kenya

ICAO - HKMO, IATA - MBA

Data provided by Airmate  

General information

Coordinates: S4°1'35" E39°35'57"
Elevation is 200 feet MSL.
Magnetic variation is -1° East
Rated:
View ratings:
[VIEW]
View others Airports in Coast Province

Operational data

Special qualification required
Current time UTC:
Current local time:
Weather
METAR: HKMO 180700Z 19013KT 9999 FEW024 BKN080 29/23 Q1014 NOSIG
TAF: TAF HKMO 180500Z 1806/1912 21010KT 9999 FEW020 SCT080 TEMPO 1809/1812 -SHRA FEW023CB SCT024 BKN080 BECMG 1815/1818 21005KT NSW FEW022 TEMPO 1900/1903 -RA SCT018 BKN080
View NOTAMs / SUP AIP / TFR affecting this airport [VIEW]
Communications frequencies: [VIEW]

Runways:

RWY identifierQFULength (ft)Width (ft)SurfaceLDA (ft)
0329°6726146ASPH10988
21209°6726146ASPH10988
15150°427595ASPH4291
33330°427595ASPH4291

Airport contact information

Satellite view of HKMO